createdAt,value
2019-02-28T00:01:31.327Z,1.65
2019-02-28T00:06:34.796Z,2.20
2019-02-28T00:11:39.457Z,1.98
2019-02-28T00:16:43.606Z,2.17
2019-02-28T00:21:47.069Z,1.87
2019-02-28T00:26:50.529Z,1.90
2019-02-28T00:31:53.989Z,2.43
2019-02-28T00:36:57.457Z,1.87
2019-02-28T00:42:00.924Z,1.70
2019-02-28T00:47:04.549Z,1.55
2019-02-28T00:52:08.010Z,1.50
2019-02-28T00:57:11.469Z,1.83
2019-02-28T01:02:17.639Z,1.80
2019-02-28T01:07:20.191Z,1.45
2019-02-28T01:12:23.648Z,1.90
2019-02-28T01:17:27.452Z,1.60
2019-02-28T01:22:30.945Z,1.20
2019-02-28T01:27:34.404Z,1.72
2019-02-28T01:32:38.233Z,1.65
2019-02-28T01:37:41.694Z,1.50
2019-02-28T01:42:45.152Z,1.45
2019-02-28T01:47:51.693Z,1.10
2019-02-28T01:52:53.797Z,1.45
2019-02-28T01:57:57.268Z,1.50
2019-02-28T02:03:00.726Z,1.45
2019-02-28T02:08:07.310Z,1.50
2019-02-28T02:13:09.373Z,1.30
2019-02-28T02:18:12.841Z,1.40
2019-02-28T02:23:18.065Z,1.20
2019-02-28T02:28:26.818Z,1.57
2019-02-28T02:33:26.666Z,1.62
2019-02-28T02:38:30.128Z,1.47
2019-02-28T02:43:33.595Z,1.30
2019-02-28T02:48:38.551Z,1.50
2019-02-28T02:53:43.389Z,1.25
2019-02-28T02:58:46.979Z,1.12
2019-02-28T03:03:50.446Z,1.17
2019-02-28T03:08:53.889Z,1.30
2019-02-28T03:13:57.345Z,1.30
2019-02-28T03:19:00.803Z,1.22
2019-02-28T03:24:04.260Z,1.27
2019-02-28T03:29:08.933Z,1.15
2019-02-28T03:34:14.108Z,1.10
2019-02-28T03:39:24.111Z,1.07
2019-02-28T03:44:22.989Z,1.32
2019-02-28T03:49:26.452Z,1.20
2019-02-28T03:54:30.262Z,1.17
2019-02-28T03:59:33.686Z,1.20
2019-02-28T04:04:37.142Z,1.33
2019-02-28T04:09:44.146Z,1.40
2019-02-28T04:14:45.777Z,1.15
2019-02-28T04:19:49.235Z,1.10
2019-02-28T04:24:52.696Z,1.12
2019-02-28T04:29:56.144Z,1.17
2019-02-28T04:34:59.599Z,1.12
2019-02-28T04:40:03.139Z,1.17
2019-02-28T04:45:11.835Z,1.12
2019-02-28T04:50:15.295Z,1.00
2019-02-28T04:55:18.755Z,1.30
2019-02-28T05:00:22.208Z,1.37
2019-02-28T05:05:25.745Z,0.90
2019-02-28T05:10:29.200Z,1.62
2019-02-28T05:15:37.337Z,1.17
2019-02-28T05:20:37.846Z,1.17
2019-02-28T05:25:41.321Z,1.02
2019-02-28T05:30:44.775Z,1.10
2019-02-28T05:35:48.244Z,1.33
2019-02-28T05:40:51.698Z,1.20
2019-02-28T05:45:55.164Z,1.32
2019-02-28T05:50:58.620Z,1.25
2019-02-28T05:56:02.084Z,1.17
2019-02-28T06:01:05.681Z,1.07
2019-02-28T06:06:09.147Z,1.17
2019-02-28T06:11:12.615Z,0.80
2019-02-28T06:16:16.066Z,1.37
2019-02-28T06:21:19.529Z,1.20
2019-02-28T06:26:22.986Z,1.30
2019-02-28T06:31:26.443Z,1.12
2019-02-28T06:36:29.969Z,1.25
2019-02-28T06:41:33.434Z,0.90
2019-02-28T06:46:39.866Z,1.10
2019-02-28T06:51:42.075Z,1.00
2019-02-28T06:56:45.538Z,1.00
2019-02-28T07:01:48.998Z,1.10
2019-02-28T07:06:52.459Z,1.17
2019-02-28T07:11:55.917Z,1.10
2019-02-28T07:16:59.378Z,1.10
2019-02-28T07:22:02.843Z,1.00
2019-02-28T07:27:06.301Z,0.90
2019-02-28T07:32:09.759Z,1.10
2019-02-28T07:37:13.213Z,0.98
2019-02-28T07:42:16.674Z,1.05
2019-02-28T07:47:20.123Z,1.00
2019-02-28T07:52:23.585Z,1.30
2019-02-28T07:57:27.046Z,1.67
2019-02-28T08:02:30.500Z,1.10
2019-02-28T08:07:33.980Z,1.20
2019-02-28T08:12:37.420Z,1.30
2019-02-28T08:17:43.864Z,5.22
2019-02-28T08:22:46.067Z,13.20
2019-02-28T08:27:49.600Z,13.22
2019-02-28T08:32:53.072Z,12.83
2019-02-28T08:37:57.384Z,11.27
2019-02-28T08:43:00.988Z,10.85
2019-02-28T08:48:04.437Z,9.13
2019-02-28T08:53:07.901Z,8.03
2019-02-28T08:58:11.360Z,8.70
2019-02-28T09:03:14.825Z,7.75
2019-02-28T09:08:18.281Z,6.92
2019-02-28T09:13:21.740Z,6.37
2019-02-28T09:18:25.209Z,6.12
2019-02-28T09:23:28.737Z,5.95
2019-02-28T09:28:32.191Z,5.70
2019-02-28T09:33:35.653Z,5.00
2019-02-28T09:38:39.116Z,4.47
2019-02-28T09:43:42.568Z,5.00
2019-02-28T09:48:46.033Z,4.20
2019-02-28T09:53:50.282Z,5.27
2019-02-28T09:58:54.429Z,4.55
2019-02-28T10:03:57.895Z,5.33
2019-02-28T10:09:01.361Z,5.50
2019-02-28T10:14:07.609Z,4.35
2019-02-28T10:19:13.392Z,4.50
2019-02-28T10:24:16.253Z,3.47
2019-02-28T10:29:19.708Z,3.63
2019-02-28T10:34:23.410Z,3.52
2019-02-28T10:39:28.365Z,3.58
2019-02-28T10:44:31.821Z,2.90
2019-02-28T10:49:35.283Z,3.02
2019-02-28T10:54:38.740Z,4.37
2019-02-28T10:59:42.196Z,3.67
2019-02-28T11:04:45.652Z,3.90
2019-02-28T11:09:49.495Z,4.00
2019-02-28T11:14:52.965Z,5.62
2019-02-28T11:19:56.421Z,5.80
2019-02-28T11:25:00.940Z,5.67
2019-02-28T11:30:17.894Z,5.52
2019-02-28T11:35:23.161Z,5.40
2019-02-28T11:40:29.217Z,5.73
2019-02-28T11:45:37.147Z,4.92
2019-02-28T11:50:42.606Z,5.75
2019-02-28T11:55:45.863Z,5.47
2019-02-28T12:00:49.328Z,6.37
2019-02-28T12:05:52.874Z,5.85
2019-02-28T12:10:58.453Z,5.83
2019-02-28T12:16:01.526Z,6.53
2019-02-28T12:21:05.156Z,5.83
2019-02-28T12:26:08.618Z,5.60
2019-02-28T12:31:12.560Z,6.10
2019-02-28T12:36:16.008Z,5.67
2019-02-28T12:41:21.723Z,5.57
2019-02-28T12:46:24.716Z,5.30
2019-02-28T12:51:28.245Z,5.97
2019-02-28T12:56:31.705Z,5.23
2019-02-28T13:01:35.166Z,6.47
2019-02-28T13:06:38.628Z,5.40
2019-02-28T13:11:42.087Z,5.05
2019-02-28T13:16:45.543Z,5.58
2019-02-28T13:21:49.010Z,5.53
2019-02-28T13:26:52.481Z,6.03
2019-02-28T13:31:57.716Z,4.90
2019-02-28T13:37:03.176Z,4.90
2019-02-28T13:42:06.433Z,5.33
2019-02-28T13:47:10.822Z,5.10
2019-02-28T13:52:18.886Z,5.27
2019-02-28T13:57:19.753Z,4.83
2019-02-28T14:02:26.314Z,4.87
2019-02-28T14:07:30.206Z,5.35
2019-02-28T14:12:33.629Z,5.60
2019-02-28T14:17:37.278Z,6.67
2019-02-28T14:22:42.746Z,5.85
2019-02-28T14:27:45.958Z,6.17
2019-02-28T14:32:49.434Z,6.72
2019-02-28T14:37:55.893Z,5.97
2019-02-28T14:42:58.105Z,5.43
2019-02-28T14:48:04.363Z,5.33
2019-02-28T14:53:06.862Z,4.33
2019-02-28T14:58:10.340Z,4.30
2019-02-28T15:03:14.879Z,4.63
2019-02-28T15:08:18.559Z,4.40
2019-02-28T15:13:22.102Z,4.70
2019-02-28T15:18:25.951Z,4.58
2019-02-28T15:23:30.794Z,4.17
2019-02-28T15:28:34.639Z,4.35
2019-02-28T15:33:38.117Z,3.62
2019-02-28T15:38:41.867Z,3.57
2019-02-28T15:43:47.171Z,3.83
2019-02-28T15:48:50.650Z,3.40
2019-02-28T15:53:54.133Z,4.33
2019-02-28T15:58:57.604Z,4.15
2019-02-28T16:04:01.086Z,3.80
2019-02-28T16:09:06.592Z,3.37
2019-02-28T16:14:14.505Z,3.90
2019-02-28T16:19:15.270Z,3.60
2019-02-28T16:24:18.743Z,3.57
2019-02-28T16:29:22.216Z,4.20
2019-02-28T16:34:25.688Z,3.98
2019-02-28T16:39:29.160Z,3.98
2019-02-28T16:44:32.642Z,3.85
2019-02-28T16:49:36.118Z,4.70
2019-02-28T16:54:39.593Z,4.33
2019-02-28T16:59:43.077Z,4.75
2019-02-28T17:04:48.644Z,7.27
2019-02-28T17:09:51.754Z,6.70
2019-02-28T17:14:55.238Z,9.98
2019-02-28T17:19:58.728Z,10.63
2019-02-28T17:25:02.213Z,9.90
2019-02-28T17:30:10.741Z,9.63
2019-02-28T17:35:14.473Z,9.48
2019-02-28T17:40:17.934Z,8.63
2019-02-28T17:45:23.835Z,8.28
2019-02-28T17:50:39.371Z,7.30
2019-02-28T17:55:47.128Z,6.60
2019-02-28T18:01:13.259Z,6.03
2019-02-28T18:06:34.564Z,5.70
2019-02-28T18:11:43.881Z,6.72
2019-02-28T18:17:08.297Z,6.00
2019-02-28T18:22:29.893Z,5.20
2019-02-28T18:27:43.707Z,6.20
2019-02-28T18:32:47.676Z,4.37
2019-02-28T18:37:51.212Z,5.33
2019-02-28T18:42:54.679Z,5.53
2019-02-28T18:47:58.141Z,5.17
2019-02-28T18:53:01.600Z,4.83
2019-02-28T18:58:05.201Z,5.42
2019-02-28T19:03:08.672Z,4.42
2019-02-28T19:08:13.671Z,4.65
2019-02-28T19:13:17.135Z,4.40
2019-02-28T19:18:20.607Z,4.75
2019-02-28T19:23:24.084Z,4.60
2019-02-28T19:28:27.565Z,5.30
2019-02-28T19:33:31.042Z,4.10
2019-02-28T19:38:34.501Z,4.72
2019-02-28T19:43:37.961Z,4.55
2019-02-28T19:48:41.426Z,4.97
2019-02-28T19:53:44.890Z,4.28
2019-02-28T19:58:48.350Z,4.20
2019-02-28T20:03:51.811Z,4.45
2019-02-28T20:08:55.271Z,4.80
2019-02-28T20:13:58.726Z,4.07
2019-02-28T20:19:02.353Z,3.90
2019-02-28T20:24:07.539Z,3.70
2019-02-28T20:29:11.001Z,6.15
2019-02-28T20:34:14.456Z,4.00
2019-02-28T20:39:17.911Z,4.70
2019-02-28T20:44:21.382Z,4.12
2019-02-28T20:49:24.843Z,4.10
2019-02-28T20:54:28.300Z,4.50
2019-02-28T20:59:31.770Z,3.65
2019-02-28T21:04:36.322Z,3.90
2019-02-28T21:09:45.008Z,3.77
2019-02-28T21:14:45.044Z,3.62
2019-02-28T21:19:48.499Z,3.42
2019-02-28T21:24:51.956Z,3.12
2019-02-28T21:29:55.418Z,3.53
2019-02-28T21:34:58.877Z,3.15
2019-02-28T21:40:02.341Z,3.10
2019-02-28T21:45:09.164Z,3.08
2019-02-28T21:50:15.037Z,2.87
2019-02-28T21:55:18.659Z,3.75
2019-02-28T22:00:24.798Z,2.33
2019-02-28T22:05:28.257Z,3.10
2019-02-28T22:10:31.718Z,2.77
2019-02-28T22:15:35.197Z,3.07
2019-02-28T22:20:38.664Z,2.95
2019-02-28T22:25:42.122Z,2.70
2019-02-28T22:30:47.221Z,2.98
2019-02-28T22:36:10.318Z,2.40
2019-02-28T22:41:13.773Z,2.72
2019-02-28T22:46:17.599Z,2.72
2019-02-28T22:51:21.066Z,2.60
2019-02-28T22:56:24.512Z,2.40
2019-02-28T23:01:28.411Z,2.13
2019-02-28T23:06:31.865Z,2.72
2019-02-28T23:11:35.325Z,2.77
2019-02-28T23:16:38.785Z,2.40
2019-02-28T23:21:42.246Z,3.02
2019-02-28T23:27:15.292Z,3.05
2019-02-28T23:32:27.567Z,2.70
2019-02-28T23:37:31.026Z,2.67
2019-02-28T23:42:34.479Z,2.52
2019-02-28T23:47:37.943Z,2.22
2019-02-28T23:52:41.397Z,2.50
2019-02-28T23:57:44.852Z,2.20
